sensor_id;sensor_type;location;lat;lon;timestamp;temperature;humidity
76897;SHT30;65856;52.178;21.176;2023-12-14T00:02:15;4.49;85.43
76897;SHT30;65856;52.178;21.176;2023-12-14T00:04:41;4.47;85.50
76897;SHT30;65856;52.178;21.176;2023-12-14T00:07:06;4.45;85.50
76897;SHT30;65856;52.178;21.176;2023-12-14T00:09:31;4.42;85.50
76897;SHT30;65856;52.178;21.176;2023-12-14T00:11:57;4.42;85.58
76897;SHT30;65856;52.178;21.176;2023-12-14T00:14:22;4.40;85.58
76897;SHT30;65856;52.178;21.176;2023-12-14T00:16:47;4.36;85.56
76897;SHT30;65856;52.178;21.176;2023-12-14T00:19:14;4.33;85.60
76897;SHT30;65856;52.178;21.176;2023-12-14T00:21:40;4.29;85.62
76897;SHT30;65856;52.178;21.176;2023-12-14T00:24:05;4.27;85.68
76897;SHT30;65856;52.178;21.176;2023-12-14T00:26:31;4.24;85.70
76897;SHT30;65856;52.178;21.176;2023-12-14T00:28:57;4.21;85.72
76897;SHT30;65856;52.178;21.176;2023-12-14T00:31:22;4.19;85.79
76897;SHT30;65856;52.178;21.176;2023-12-14T00:33:47;4.15;85.83
76897;SHT30;65856;52.178;21.176;2023-12-14T00:36:19;4.09;85.90
76897;SHT30;65856;52.178;21.176;2023-12-14T00:38:45;4.07;85.97
76897;SHT30;65856;52.178;21.176;2023-12-14T00:41:11;4.07;86.01
76897;SHT30;65856;52.178;21.176;2023-12-14T00:43:37;4.08;86.01
76897;SHT30;65856;52.178;21.176;2023-12-14T00:46:03;4.08;86.03
76897;SHT30;65856;52.178;21.176;2023-12-14T00:48:28;4.09;86.07
76897;SHT30;65856;52.178;21.176;2023-12-14T00:50:54;4.06;86.02
76897;SHT30;65856;52.178;21.176;2023-12-14T00:53:19;4.05;86.01
76897;SHT30;65856;52.178;21.176;2023-12-14T00:55:45;4.03;86.10
76897;SHT30;65856;52.178;21.176;2023-12-14T00:58:10;4.01;86.10
76897;SHT30;65856;52.178;21.176;2023-12-14T01:00:38;3.97;86.19
76897;SHT30;65856;52.178;21.176;2023-12-14T01:03:03;3.96;86.20
76897;SHT30;65856;52.178;21.176;2023-12-14T01:05:29;3.94;86.21
76897;SHT30;65856;52.178;21.176;2023-12-14T01:07:54;3.95;86.23
76897;SHT30;65856;52.178;21.176;2023-12-14T01:10:20;3.96;86.30
76897;SHT30;65856;52.178;21.176;2023-12-14T01:12:45;3.98;86.25
76897;SHT30;65856;52.178;21.176;2023-12-14T01:15:11;3.97;86.29
76897;SHT30;65856;52.178;21.176;2023-12-14T01:17:36;3.95;86.30
76897;SHT30;65856;52.178;21.176;2023-12-14T01:20:05;3.96;86.30
76897;SHT30;65856;52.178;21.176;2023-12-14T01:22:32;3.95;86.29
76897;SHT30;65856;52.178;21.176;2023-12-14T01:24:58;3.92;86.30
76897;SHT30;65856;52.178;21.176;2023-12-14T01:27:24;3.90;86.31
76897;SHT30;65856;52.178;21.176;2023-12-14T01:29:50;3.88;86.38
76897;SHT30;65856;52.178;21.176;2023-12-14T01:32:15;3.87;86.39
76897;SHT30;65856;52.178;21.176;2023-12-14T01:34:41;3.85;86.37
76897;SHT30;65856;52.178;21.176;2023-12-14T01:37:06;3.81;86.35
76897;SHT30;65856;52.178;21.176;2023-12-14T01:39:32;3.78;86.35
76897;SHT30;65856;52.178;21.176;2023-12-14T01:41:58;3.78;86.40
76897;SHT30;65856;52.178;21.176;2023-12-14T01:44:23;3.78;86.40
76897;SHT30;65856;52.178;21.176;2023-12-14T01:46:49;3.75;86.40
76897;SHT30;65856;52.178;21.176;2023-12-14T01:49:14;3.71;86.50
76897;SHT30;65856;52.178;21.176;2023-12-14T01:51:39;3.69;86.52
76897;SHT30;65856;52.178;21.176;2023-12-14T01:54:05;3.65;86.61
76897;SHT30;65856;52.178;21.176;2023-12-14T01:56:31;3.63;86.64
76897;SHT30;65856;52.178;21.176;2023-12-14T01:58:56;3.61;86.70
76897;SHT30;65856;52.178;21.176;2023-12-14T02:04:08;3.59;86.78
76897;SHT30;65856;52.178;21.176;2023-12-14T02:06:35;3.57;86.80
76897;SHT30;65856;52.178;21.176;2023-12-14T02:09:00;3.60;86.80
76897;SHT30;65856;52.178;21.176;2023-12-14T02:11:26;3.62;86.80
76897;SHT30;65856;52.178;21.176;2023-12-14T02:13:52;3.61;86.80
76897;SHT30;65856;52.178;21.176;2023-12-14T02:16:17;3.62;86.81
76897;SHT30;65856;52.178;21.176;2023-12-14T02:18:42;3.62;86.80
76897;SHT30;65856;52.178;21.176;2023-12-14T02:21:09;3.63;86.81
76897;SHT30;65856;52.178;21.176;2023-12-14T02:23:34;3.62;86.80
76897;SHT30;65856;52.178;21.176;2023-12-14T02:26:00;3.61;86.79
76897;SHT30;65856;52.178;21.176;2023-12-14T02:28:25;3.61;86.80
76897;SHT30;65856;52.178;21.176;2023-12-14T02:30:51;3.61;86.79
76897;SHT30;65856;52.178;21.176;2023-12-14T02:33:16;3.64;86.77
76897;SHT30;65856;52.178;21.176;2023-12-14T02:35:42;3.65;86.77
76897;SHT30;65856;52.178;21.176;2023-12-14T02:38:08;3.64;86.79
76897;SHT30;65856;52.178;21.176;2023-12-14T02:40:33;3.64;86.80
76897;SHT30;65856;52.178;21.176;2023-12-14T02:42:59;3.64;86.74
76897;SHT30;65856;52.178;21.176;2023-12-14T02:45:24;3.63;86.79
76897;SHT30;65856;52.178;21.176;2023-12-14T02:47:50;3.66;86.80
76897;SHT30;65856;52.178;21.176;2023-12-14T02:50:17;3.67;86.73
76897;SHT30;65856;52.178;21.176;2023-12-14T02:52:42;3.70;86.70
76897;SHT30;65856;52.178;21.176;2023-12-14T02:55:07;3.71;86.62
76897;SHT30;65856;52.178;21.176;2023-12-14T02:57:33;3.71;86.65
76897;SHT30;65856;52.178;21.176;2023-12-14T02:59:58;3.70;86.63
76897;SHT30;65856;52.178;21.176;2023-12-14T03:02:24;3.70;86.62
76897;SHT30;65856;52.178;21.176;2023-12-14T03:04:49;3.70;86.61
76897;SHT30;65856;52.178;21.176;2023-12-14T03:07:14;3.69;86.62
76897;SHT30;65856;52.178;21.176;2023-12-14T03:09:40;3.70;86.62
76897;SHT30;65856;52.178;21.176;2023-12-14T03:12:09;3.72;86.53
76897;SHT30;65856;52.178;21.176;2023-12-14T03:14:38;3.74;86.50
76897;SHT30;65856;52.178;21.176;2023-12-14T03:17:03;3.75;86.50
76897;SHT30;65856;52.178;21.176;2023-12-14T03:19:29;3.76;86.50
76897;SHT30;65856;52.178;21.176;2023-12-14T03:21:54;3.79;86.48
76897;SHT30;65856;52.178;21.176;2023-12-14T03:24:20;3.78;86.41
76897;SHT30;65856;52.178;21.176;2023-12-14T03:26:45;3.74;86.40
76897;SHT30;65856;52.178;21.176;2023-12-14T03:29:11;3.75;86.40
76897;SHT30;65856;52.178;21.176;2023-12-14T03:31:36;3.75;86.40
76897;SHT30;65856;52.178;21.176;2023-12-14T03:34:02;3.73;86.40
76897;SHT30;65856;52.178;21.176;2023-12-14T03:36:27;3.71;86.40
76897;SHT30;65856;52.178;21.176;2023-12-14T03:38:53;3.72;86.40
76897;SHT30;65856;52.178;21.176;2023-12-14T03:41:19;3.72;86.40
76897;SHT30;65856;52.178;21.176;2023-12-14T03:43:45;3.76;86.40
76897;SHT30;65856;52.178;21.176;2023-12-14T03:46:10;3.80;86.35
76897;SHT30;65856;52.178;21.176;2023-12-14T03:48:36;3.83;86.33
76897;SHT30;65856;52.178;21.176;2023-12-14T03:51:02;3.84;86.29
76897;SHT30;65856;52.178;21.176;2023-12-14T03:53:29;3.85;86.30
76897;SHT30;65856;52.178;21.176;2023-12-14T03:55:54;3.86;86.27
76897;SHT30;65856;52.178;21.176;2023-12-14T03:58:20;3.87;86.30
76897;SHT30;65856;52.178;21.176;2023-12-14T04:00:45;3.90;86.28
76897;SHT30;65856;52.178;21.176;2023-12-14T04:03:11;3.90;86.21
76897;SHT30;65856;52.178;21.176;2023-12-14T04:05:36;3.93;86.23
76897;SHT30;65856;52.178;21.176;2023-12-14T04:08:01;3.95;86.20
76897;SHT30;65856;52.178;21.176;2023-12-14T04:10:27;3.96;86.20
76897;SHT30;65856;52.178;21.176;2023-12-14T04:12:52;3.97;86.20
76897;SHT30;65856;52.178;21.176;2023-12-14T04:15:18;3.97;86.25
76897;SHT30;65856;52.178;21.176;2023-12-14T04:17:43;3.99;86.24
76897;SHT30;65856;52.178;21.176;2023-12-14T04:20:09;4.00;86.29
76897;SHT30;65856;52.178;21.176;2023-12-14T04:22:35;3.98;86.28
76897;SHT30;65856;52.178;21.176;2023-12-14T04:25:00;3.99;86.30
76897;SHT30;65856;52.178;21.176;2023-12-14T04:27:25;3.99;86.27
76897;SHT30;65856;52.178;21.176;2023-12-14T04:29:54;3.95;86.21
76897;SHT30;65856;52.178;21.176;2023-12-14T04:32:19;3.90;86.22
76897;SHT30;65856;52.178;21.176;2023-12-14T04:34:44;3.87;86.27
76897;SHT30;65856;52.178;21.176;2023-12-14T04:37:10;3.86;86.31
76897;SHT30;65856;52.178;21.176;2023-12-14T04:39:35;3.87;86.32
76897;SHT30;65856;52.178;21.176;2023-12-14T04:42:01;3.87;86.31
76897;SHT30;65856;52.178;21.176;2023-12-14T04:44:26;3.91;86.29
76897;SHT30;65856;52.178;21.176;2023-12-14T04:46:51;3.93;86.29
76897;SHT30;65856;52.178;21.176;2023-12-14T04:49:18;3.94;86.26
76897;SHT30;65856;52.178;21.176;2023-12-14T04:51:44;3.92;86.20
76897;SHT30;65856;52.178;21.176;2023-12-14T04:54:10;3.91;86.20
76897;SHT30;65856;52.178;21.176;2023-12-14T04:56:35;3.91;86.20
76897;SHT30;65856;52.178;21.176;2023-12-14T04:59:01;3.92;86.19
76897;SHT30;65856;52.178;21.176;2023-12-14T05:01:26;3.88;86.20
76897;SHT30;65856;52.178;21.176;2023-12-14T05:03:52;3.86;86.21
76897;SHT30;65856;52.178;21.176;2023-12-14T05:06:18;3.86;86.23
76897;SHT30;65856;52.178;21.176;2023-12-14T05:08:43;3.86;86.24
76897;SHT30;65856;52.178;21.176;2023-12-14T05:11:09;3.86;86.29
76897;SHT30;65856;52.178;21.176;2023-12-14T05:13:34;3.86;86.21
76897;SHT30;65856;52.178;21.176;2023-12-14T05:16:00;3.87;86.20
76897;SHT30;65856;52.178;21.176;2023-12-14T05:18:26;3.88;86.20
76897;SHT30;65856;52.178;21.176;2023-12-14T05:20:52;3.89;86.13
76897;SHT30;65856;52.178;21.176;2023-12-14T05:23:17;3.88;86.08
76897;SHT30;65856;52.178;21.176;2023-12-14T05:25:43;3.86;86.01
76897;SHT30;65856;52.178;21.176;2023-12-14T05:28:09;3.85;86.02
76897;SHT30;65856;52.178;21.176;2023-12-14T05:30:35;3.84;86.00
76897;SHT30;65856;52.178;21.176;2023-12-14T05:33:00;3.85;85.98
76897;SHT30;65856;52.178;21.176;2023-12-14T05:35:26;3.84;85.91
76897;SHT30;65856;52.178;21.176;2023-12-14T05:37:52;3.81;85.90
76897;SHT30;65856;52.178;21.176;2023-12-14T05:40:17;3.80;85.90
76897;SHT30;65856;52.178;21.176;2023-12-14T05:42:42;3.80;85.90
76897;SHT30;65856;52.178;21.176;2023-12-14T05:45:08;3.79;85.89
76897;SHT30;65856;52.178;21.176;2023-12-14T05:47:34;3.75;85.90
76897;SHT30;65856;52.178;21.176;2023-12-14T05:50:00;3.75;86.00
76897;SHT30;65856;52.178;21.176;2023-12-14T05:52:26;3.76;86.05
76897;SHT30;65856;52.178;21.176;2023-12-14T05:54:52;3.76;86.09
76897;SHT30;65856;52.178;21.176;2023-12-14T05:57:17;3.78;86.10
76897;SHT30;65856;52.178;21.176;2023-12-14T05:59:42;3.81;86.10
76897;SHT30;65856;52.178;21.176;2023-12-14T06:02:08;3.84;86.10
76897;SHT30;65856;52.178;21.176;2023-12-14T06:04:34;3.87;86.06
76897;SHT30;65856;52.178;21.176;2023-12-14T06:06:59;3.88;86.00
76897;SHT30;65856;52.178;21.176;2023-12-14T06:09:25;3.91;85.96
76897;SHT30;65856;52.178;21.176;2023-12-14T06:11:58;4.09;86.17
76897;SHT30;65856;52.178;21.176;2023-12-14T06:14:26;4.32;85.82
76897;SHT30;65856;52.178;21.176;2023-12-14T06:16:51;4.44;85.42
76897;SHT30;65856;52.178;21.176;2023-12-14T06:19:16;4.59;85.17
76897;SHT30;65856;52.178;21.176;2023-12-14T06:21:42;4.69;84.82
76897;SHT30;65856;52.178;21.176;2023-12-14T06:24:07;4.64;84.64
76897;SHT30;65856;52.178;21.176;2023-12-14T06:26:32;4.59;84.53
76897;SHT30;65856;52.178;21.176;2023-12-14T06:28:58;4.54;84.49
76897;SHT30;65856;52.178;21.176;2023-12-14T06:31:23;4.49;84.47
76897;SHT30;65856;52.178;21.176;2023-12-14T06:33:49;4.49;84.50
76897;SHT30;65856;52.178;21.176;2023-12-14T06:36:17;4.47;84.44
76897;SHT30;65856;52.178;21.176;2023-12-14T06:38:43;4.45;84.49
76897;SHT30;65856;52.178;21.176;2023-12-14T06:41:17;4.42;84.43
76897;SHT30;65856;52.178;21.176;2023-12-14T06:43:46;4.37;84.47
76897;SHT30;65856;52.178;21.176;2023-12-14T06:46:11;4.37;84.58
76897;SHT30;65856;52.178;21.176;2023-12-14T06:48:37;4.37;84.51
76897;SHT30;65856;52.178;21.176;2023-12-14T06:51:02;4.35;84.50
76897;SHT30;65856;52.178;21.176;2023-12-14T06:53:27;4.34;84.50
76897;SHT30;65856;52.178;21.176;2023-12-14T06:55:54;4.34;84.54
76897;SHT30;65856;52.178;21.176;2023-12-14T06:58:20;4.34;84.53
76897;SHT30;65856;52.178;21.176;2023-12-14T07:00:45;4.33;84.54
76897;SHT30;65856;52.178;21.176;2023-12-14T07:03:11;4.32;84.59
76897;SHT30;65856;52.178;21.176;2023-12-14T07:05:36;4.27;84.60
76897;SHT30;65856;52.178;21.176;2023-12-14T07:08:01;4.21;84.59
76897;SHT30;65856;52.178;21.176;2023-12-14T07:10:27;4.14;84.69
76897;SHT30;65856;52.178;21.176;2023-12-14T07:12:52;4.12;84.78
76897;SHT30;65856;52.178;21.176;2023-12-14T07:15:17;4.09;84.80
76897;SHT30;65856;52.178;21.176;2023-12-14T07:17:43;4.05;84.80
76897;SHT30;65856;52.178;21.176;2023-12-14T07:20:09;4.00;84.81
76897;SHT30;65856;52.178;21.176;2023-12-14T07:22:36;3.96;84.83
76897;SHT30;65856;52.178;21.176;2023-12-14T07:25:01;3.94;84.90
76897;SHT30;65856;52.178;21.176;2023-12-14T07:27:27;3.92;84.98
76897;SHT30;65856;52.178;21.176;2023-12-14T07:29:52;3.88;85.02
76897;SHT30;65856;52.178;21.176;2023-12-14T07:32:18;3.85;85.08
76897;SHT30;65856;52.178;21.176;2023-12-14T07:34:43;3.81;85.09
76897;SHT30;65856;52.178;21.176;2023-12-14T07:37:09;3.79;85.16
76897;SHT30;65856;52.178;21.176;2023-12-14T07:39:36;3.75;85.20
76897;SHT30;65856;52.178;21.176;2023-12-14T07:42:01;3.72;85.28
76897;SHT30;65856;52.178;21.176;2023-12-14T07:44:27;3.70;85.33
76897;SHT30;65856;52.178;21.176;2023-12-14T07:46:55;3.68;85.40
76897;SHT30;65856;52.178;21.176;2023-12-14T07:49:21;3.68;85.47
76897;SHT30;65856;52.178;21.176;2023-12-14T07:51:48;3.66;85.52
76897;SHT30;65856;52.178;21.176;2023-12-14T07:54:14;3.65;85.60
76897;SHT30;65856;52.178;21.176;2023-12-14T07:56:40;3.66;85.59
76897;SHT30;65856;52.178;21.176;2023-12-14T07:59:06;3.67;85.60
76897;SHT30;65856;52.178;21.176;2023-12-14T08:01:33;3.69;85.58
76897;SHT30;65856;52.178;21.176;2023-12-14T08:03:59;3.70;85.60
76897;SHT30;65856;52.178;21.176;2023-12-14T08:06:25;3.70;85.62
76897;SHT30;65856;52.178;21.176;2023-12-14T08:08:50;3.71;85.67
76897;SHT30;65856;52.178;21.176;2023-12-14T08:11:16;3.71;85.68
76897;SHT30;65856;52.178;21.176;2023-12-14T08:13:41;3.70;85.70
76897;SHT30;65856;52.178;21.176;2023-12-14T08:16:07;3.71;85.72
76897;SHT30;65856;52.178;21.176;2023-12-14T08:18:33;3.73;85.74
76897;SHT30;65856;52.178;21.176;2023-12-14T08:20:59;3.74;85.70
76897;SHT30;65856;52.178;21.176;2023-12-14T08:23:24;3.73;85.76
76897;SHT30;65856;52.178;21.176;2023-12-14T08:25:52;3.75;85.80
76897;SHT30;65856;52.178;21.176;2023-12-14T08:28:22;3.78;85.79
76897;SHT30;65856;52.178;21.176;2023-12-14T08:30:48;3.77;85.72
76897;SHT30;65856;52.178;21.176;2023-12-14T08:33:14;3.75;85.73
76897;SHT30;65856;52.178;21.176;2023-12-14T08:35:40;3.76;85.70
76897;SHT30;65856;52.178;21.176;2023-12-14T08:38:06;3.76;85.60
76897;SHT30;65856;52.178;21.176;2023-12-14T08:40:31;3.72;85.60
76897;SHT30;65856;52.178;21.176;2023-12-14T08:42:57;3.71;85.64
76897;SHT30;65856;52.178;21.176;2023-12-14T08:45:22;3.71;85.70
76897;SHT30;65856;52.178;21.176;2023-12-14T08:47:47;3.72;85.73
76897;SHT30;65856;52.178;21.176;2023-12-14T08:50:13;3.72;85.82
76897;SHT30;65856;52.178;21.176;2023-12-14T08:52:38;3.75;85.76
76897;SHT30;65856;52.178;21.176;2023-12-14T08:55:04;3.73;85.70
76897;SHT30;65856;52.178;21.176;2023-12-14T08:57:30;3.74;85.70
76897;SHT30;65856;52.178;21.176;2023-12-14T08:59:56;3.76;85.64
76897;SHT30;65856;52.178;21.176;2023-12-14T09:02:21;3.77;85.56
76897;SHT30;65856;52.178;21.176;2023-12-14T09:04:47;3.79;85.60
76897;SHT30;65856;52.178;21.176;2023-12-14T09:07:12;3.84;85.63
76897;SHT30;65856;52.178;21.176;2023-12-14T09:09:38;3.83;85.57
76897;SHT30;65856;52.178;21.176;2023-12-14T09:12:03;3.83;85.55
76897;SHT30;65856;52.178;21.176;2023-12-14T09:14:29;3.87;85.55
76897;SHT30;65856;52.178;21.176;2023-12-14T09:16:55;3.87;85.50
76897;SHT30;65856;52.178;21.176;2023-12-14T09:19:21;3.87;85.43
76897;SHT30;65856;52.178;21.176;2023-12-14T09:21:46;3.84;85.47
76897;SHT30;65856;52.178;21.176;2023-12-14T09:24:12;3.83;85.42
76897;SHT30;65856;52.178;21.176;2023-12-14T09:26:37;3.84;85.41
76897;SHT30;65856;52.178;21.176;2023-12-14T09:29:02;3.85;85.41
76897;SHT30;65856;52.178;21.176;2023-12-14T09:31:28;3.87;85.40
76897;SHT30;65856;52.178;21.176;2023-12-14T09:33:53;3.89;85.48
76897;SHT30;65856;52.178;21.176;2023-12-14T09:36:19;3.89;85.50
76897;SHT30;65856;52.178;21.176;2023-12-14T09:38:44;3.91;85.50
76897;SHT30;65856;52.178;21.176;2023-12-14T09:41:10;3.93;85.50
76897;SHT30;65856;52.178;21.176;2023-12-14T09:43:36;3.94;85.47
76897;SHT30;65856;52.178;21.176;2023-12-14T09:46:02;3.96;85.50
76897;SHT30;65856;52.178;21.176;2023-12-14T09:48:28;3.97;85.44
76897;SHT30;65856;52.178;21.176;2023-12-14T09:50:54;3.98;85.41
76897;SHT30;65856;52.178;21.176;2023-12-14T09:53:20;3.99;85.40
76897;SHT30;65856;52.178;21.176;2023-12-14T09:55:46;4.03;85.40
76897;SHT30;65856;52.178;21.176;2023-12-14T09:58:11;4.08;85.40
76897;SHT30;65856;52.178;21.176;2023-12-14T10:00:38;4.09;85.39
76897;SHT30;65856;52.178;21.176;2023-12-14T10:03:21;4.11;85.34
76897;SHT30;65856;52.178;21.176;2023-12-14T10:05:51;4.11;85.25
76897;SHT30;65856;52.178;21.176;2023-12-14T10:08:18;4.10;85.30
76897;SHT30;65856;52.178;21.176;2023-12-14T10:10:47;4.10;85.31
76897;SHT30;65856;52.178;21.176;2023-12-14T10:13:14;4.09;85.31
76897;SHT30;65856;52.178;21.176;2023-12-14T10:15:40;4.10;85.30
76897;SHT30;65856;52.178;21.176;2023-12-14T10:18:07;4.06;85.22
76897;SHT30;65856;52.178;21.176;2023-12-14T10:20:33;4.01;85.21
76897;SHT30;65856;52.178;21.176;2023-12-14T10:22:58;4.01;85.30
76897;SHT30;65856;52.178;21.176;2023-12-14T10:25:24;4.02;85.31
76897;SHT30;65856;52.178;21.176;2023-12-14T10:27:52;4.06;85.30
76897;SHT30;65856;52.178;21.176;2023-12-14T10:30:18;4.07;85.31
76897;SHT30;65856;52.178;21.176;2023-12-14T10:32:45;4.10;85.26
76897;SHT30;65856;52.178;21.176;2023-12-14T10:35:14;4.09;85.13
76897;SHT30;65856;52.178;21.176;2023-12-14T10:37:44;4.07;85.19
76897;SHT30;65856;52.178;21.176;2023-12-14T10:40:13;4.07;85.29
76897;SHT30;65856;52.178;21.176;2023-12-14T10:42:39;4.07;85.25
76897;SHT30;65856;52.178;21.176;2023-12-14T10:45:08;4.09;85.16
76897;SHT30;65856;52.178;21.176;2023-12-14T10:47:42;4.12;85.17
76897;SHT30;65856;52.178;21.176;2023-12-14T10:50:10;4.16;85.14
76897;SHT30;65856;52.178;21.176;2023-12-14T10:52:37;4.20;85.11
76897;SHT30;65856;52.178;21.176;2023-12-14T10:55:05;4.24;85.06
76897;SHT30;65856;52.178;21.176;2023-12-14T10:57:35;4.23;84.99
76897;SHT30;65856;52.178;21.176;2023-12-14T11:00:02;4.24;84.94
76897;SHT30;65856;52.178;21.176;2023-12-14T11:02:39;4.24;84.83
76897;SHT30;65856;52.178;21.176;2023-12-14T11:05:11;4.23;84.84
76897;SHT30;65856;52.178;21.176;2023-12-14T11:07:44;4.24;84.86
76897;SHT30;65856;52.178;21.176;2023-12-14T11:10:37;4.23;84.75
76897;SHT30;65856;52.178;21.176;2023-12-14T11:13:12;4.18;84.61
76897;SHT30;65856;52.178;21.176;2023-12-14T11:15:48;4.14;84.60
76897;SHT30;65856;52.178;21.176;2023-12-14T11:23:09;4.08;84.64
76897;SHT30;65856;52.178;21.176;2023-12-14T11:25:41;4.08;84.61
76897;SHT30;65856;52.178;21.176;2023-12-14T11:28:07;4.08;84.60
76897;SHT30;65856;52.178;21.176;2023-12-14T11:30:33;4.08;84.52
76897;SHT30;65856;52.178;21.176;2023-12-14T11:33:00;4.04;84.41
76897;SHT30;65856;52.178;21.176;2023-12-14T11:35:26;3.98;84.36
76897;SHT30;65856;52.178;21.176;2023-12-14T11:37:51;3.99;84.48
76897;SHT30;65856;52.178;21.176;2023-12-14T11:40:16;3.98;84.51
76897;SHT30;65856;52.178;21.176;2023-12-14T11:43:08;4.00;84.53
76897;SHT30;65856;52.178;21.176;2023-12-14T11:45:34;4.02;84.52
76897;SHT30;65856;52.178;21.176;2023-12-14T11:48:02;4.03;84.59
76897;SHT30;65856;52.178;21.176;2023-12-14T11:50:33;4.04;84.53
76897;SHT30;65856;52.178;21.176;2023-12-14T11:53:00;4.01;84.43
76897;SHT30;65856;52.178;21.176;2023-12-14T11:55:28;4.02;84.46
76897;SHT30;65856;52.178;21.176;2023-12-14T11:57:55;4.03;84.50
76897;SHT30;65856;52.178;21.176;2023-12-14T12:00:24;4.03;84.48
76897;SHT30;65856;52.178;21.176;2023-12-14T12:03:13;4.01;84.39
76897;SHT30;65856;52.178;21.176;2023-12-14T12:05:45;4.01;84.40
76897;SHT30;65856;52.178;21.176;2023-12-14T12:08:13;4.03;84.38
76897;SHT30;65856;52.178;21.176;2023-12-14T12:10:43;4.00;84.29
76897;SHT30;65856;52.178;21.176;2023-12-14T12:13:13;4.00;84.27
76897;SHT30;65856;52.178;21.176;2023-12-14T12:15:43;3.97;84.29
76897;SHT30;65856;52.178;21.176;2023-12-14T12:18:10;3.97;84.30
76897;SHT30;65856;52.178;21.176;2023-12-14T12:20:41;3.96;84.30
76897;SHT30;65856;52.178;21.176;2023-12-14T12:23:07;3.96;84.32
76897;SHT30;65856;52.178;21.176;2023-12-14T12:25:33;3.94;84.32
76897;SHT30;65856;52.178;21.176;2023-12-14T12:28:00;3.92;84.39
76897;SHT30;65856;52.178;21.176;2023-12-14T12:30:28;3.92;84.42
76897;SHT30;65856;52.178;21.176;2023-12-14T12:32:54;3.91;84.42
76897;SHT30;65856;52.178;21.176;2023-12-14T12:35:23;3.91;84.54
76897;SHT30;65856;52.178;21.176;2023-12-14T12:37:49;3.93;84.58
76897;SHT30;65856;52.178;21.176;2023-12-14T12:40:18;3.93;84.52
76897;SHT30;65856;52.178;21.176;2023-12-14T12:42:48;3.94;84.55
76897;SHT30;65856;52.178;21.176;2023-12-14T12:45:15;3.93;84.52
76897;SHT30;65856;52.178;21.176;2023-12-14T12:47:47;3.93;84.59
76897;SHT30;65856;52.178;21.176;2023-12-14T12:50:13;3.96;84.52
76897;SHT30;65856;52.178;21.176;2023-12-14T12:52:38;3.95;84.52
76897;SHT30;65856;52.178;21.176;2023-12-14T12:55:05;3.96;84.54
76897;SHT30;65856;52.178;21.176;2023-12-14T12:57:32;3.97;84.47
76897;SHT30;65856;52.178;21.176;2023-12-14T12:59:57;3.97;84.46
76897;SHT30;65856;52.178;21.176;2023-12-14T13:02:23;3.97;84.52
76897;SHT30;65856;52.178;21.176;2023-12-14T13:04:48;3.92;84.60
76897;SHT30;65856;52.178;21.176;2023-12-14T13:07:13;3.93;84.70
76897;SHT30;65856;52.178;21.176;2023-12-14T13:09:39;3.88;84.70
76897;SHT30;65856;52.178;21.176;2023-12-14T13:12:04;3.84;84.80
76897;SHT30;65856;52.178;21.176;2023-12-14T13:14:31;3.78;84.80
76897;SHT30;65856;52.178;21.176;2023-12-14T13:16:56;3.74;84.94
76897;SHT30;65856;52.178;21.176;2023-12-14T13:19:23;3.74;84.98
76897;SHT30;65856;52.178;21.176;2023-12-14T13:21:49;3.75;84.99
76897;SHT30;65856;52.178;21.176;2023-12-14T13:24:14;3.74;85.00
76897;SHT30;65856;52.178;21.176;2023-12-14T13:26:40;3.72;85.00
76897;SHT30;65856;52.178;21.176;2023-12-14T13:29:05;3.71;85.00
76897;SHT30;65856;52.178;21.176;2023-12-14T13:31:30;3.69;85.06
76897;SHT30;65856;52.178;21.176;2023-12-14T13:33:56;3.67;85.02
76897;SHT30;65856;52.178;21.176;2023-12-14T13:36:21;3.64;85.09
76897;SHT30;65856;52.178;21.176;2023-12-14T13:38:46;3.62;85.05
76897;SHT30;65856;52.178;21.176;2023-12-14T13:41:12;3.61;85.04
76897;SHT30;65856;52.178;21.176;2023-12-14T13:43:37;3.59;85.01
76897;SHT30;65856;52.178;21.176;2023-12-14T13:46:03;3.56;85.09
76897;SHT30;65856;52.178;21.176;2023-12-14T13:48:28;3.58;85.11
76897;SHT30;65856;52.178;21.176;2023-12-14T13:50:54;3.61;85.12
76897;SHT30;65856;52.178;21.176;2023-12-14T13:53:20;3.64;85.12
76897;SHT30;65856;52.178;21.176;2023-12-14T13:55:47;3.65;85.07
76897;SHT30;65856;52.178;21.176;2023-12-14T13:58:14;3.65;85.06
76897;SHT30;65856;52.178;21.176;2023-12-14T14:00:40;3.65;84.97
76897;SHT30;65856;52.178;21.176;2023-12-14T14:03:05;3.64;84.96
76897;SHT30;65856;52.178;21.176;2023-12-14T14:05:31;3.59;84.93
76897;SHT30;65856;52.178;21.176;2023-12-14T14:07:58;3.61;85.00
76897;SHT30;65856;52.178;21.176;2023-12-14T14:10:23;3.64;85.02
76897;SHT30;65856;52.178;21.176;2023-12-14T14:12:49;3.67;84.98
76897;SHT30;65856;52.178;21.176;2023-12-14T14:15:15;3.68;84.91
76897;SHT30;65856;52.178;21.176;2023-12-14T14:17:40;3.67;84.94
76897;SHT30;65856;52.178;21.176;2023-12-14T14:20:06;3.70;84.96
76897;SHT30;65856;52.178;21.176;2023-12-14T14:22:33;3.74;84.97
76897;SHT30;65856;52.178;21.176;2023-12-14T14:24:59;3.78;84.92
76897;SHT30;65856;52.178;21.176;2023-12-14T14:27:25;3.80;84.90
76897;SHT30;65856;52.178;21.176;2023-12-14T14:29:50;3.82;84.90
76897;SHT30;65856;52.178;21.176;2023-12-14T14:32:19;3.84;84.87
76897;SHT30;65856;52.178;21.176;2023-12-14T14:34:44;3.83;84.87
76897;SHT30;65856;52.178;21.176;2023-12-14T14:37:10;3.83;84.82
76897;SHT30;65856;52.178;21.176;2023-12-14T14:39:35;3.80;84.81
76897;SHT30;65856;52.178;21.176;2023-12-14T14:42:03;3.77;84.89
76897;SHT30;65856;52.178;21.176;2023-12-14T14:44:28;3.79;84.91
76897;SHT30;65856;52.178;21.176;2023-12-14T14:46:53;3.81;84.99
76897;SHT30;65856;52.178;21.176;2023-12-14T14:49:19;3.81;84.96
76897;SHT30;65856;52.178;21.176;2023-12-14T14:51:44;3.79;84.87
76897;SHT30;65856;52.178;21.176;2023-12-14T14:54:10;3.78;84.93
76897;SHT30;65856;52.178;21.176;2023-12-14T14:56:35;3.80;84.91
76897;SHT30;65856;52.178;21.176;2023-12-14T14:59:00;3.82;84.90
76897;SHT30;65856;52.178;21.176;2023-12-14T15:01:26;3.82;84.90
76897;SHT30;65856;52.178;21.176;2023-12-14T15:03:51;3.83;84.93
76897;SHT30;65856;52.178;21.176;2023-12-14T15:06:17;3.84;84.90
76897;SHT30;65856;52.178;21.176;2023-12-14T15:08:42;3.86;84.90
76897;SHT30;65856;52.178;21.176;2023-12-14T15:11:08;3.88;84.90
76897;SHT30;65856;52.178;21.176;2023-12-14T15:13:35;3.90;84.89
76897;SHT30;65856;52.178;21.176;2023-12-14T15:16:01;3.93;84.85
76897;SHT30;65856;52.178;21.176;2023-12-14T15:18:28;3.94;84.80
76897;SHT30;65856;52.178;21.176;2023-12-14T15:20:53;3.92;84.81
76897;SHT30;65856;52.178;21.176;2023-12-14T15:23:19;3.94;84.80
76897;SHT30;65856;52.178;21.176;2023-12-14T15:25:44;3.95;84.80
76897;SHT30;65856;52.178;21.176;2023-12-14T15:28:09;3.96;84.80
76897;SHT30;65856;52.178;21.176;2023-12-14T15:30:35;3.96;84.80
76897;SHT30;65856;52.178;21.176;2023-12-14T15:33:00;4.00;84.80